createdAt,value
2022-10-03T00:06:09.292Z,101400.91
2022-10-03T00:13:52.962Z,101406.28
2022-10-03T00:21:42.862Z,101404.38
2022-10-03T00:29:35.176Z,101409.66
2022-10-03T00:37:24.735Z,101413.28
2022-10-03T00:45:32.235Z,101419.66
2022-10-03T00:53:18.066Z,101428.66
2022-10-03T01:00:57.986Z,101445.78
2022-10-03T01:09:06.718Z,101439.63
2022-10-03T01:16:52.607Z,101437.88
2022-10-03T01:24:46.526Z,101451.22
2022-10-03T01:32:29.968Z,101466.47
2022-10-03T01:40:14.700Z,101467.47
2022-10-03T01:47:55.338Z,101465.81
2022-10-03T01:55:41.539Z,101476.59
2022-10-03T02:03:24.444Z,101480.28
2022-10-03T02:11:03.388Z,101476.78
2022-10-03T02:18:46.203Z,101483.09
2022-10-03T02:26:58.696Z,101487.59
2022-10-03T02:35:07.170Z,101481.38
2022-10-03T02:43:11.133Z,101499.28
2022-10-03T02:51:17.145Z,101501.09
2022-10-03T02:59:19.962Z,101500.19
2022-10-03T03:07:21.003Z,101509.16
2022-10-03T03:15:14.009Z,101507.44
2022-10-03T03:23:07.995Z,101511.03
2022-10-03T03:30:49.594Z,101516.28
2022-10-03T03:38:33.625Z,101515.22
2022-10-03T03:46:20.136Z,101521.47
2022-10-03T03:54:12.784Z,101525.06
2022-10-03T04:02:06.672Z,101537.63
2022-10-03T04:10:05.741Z,101546.59
2022-10-03T04:18:12.493Z,101543.88
2022-10-03T04:26:07.674Z,101551.81
2022-10-03T04:33:53.958Z,101551.81
2022-10-03T04:41:43.039Z,101555.41
2022-10-03T04:49:26.178Z,101552.69
2022-10-03T04:57:08.960Z,101565.19
2022-10-03T05:04:55.757Z,101560.69
2022-10-03T05:12:39.903Z,101563.28
2022-10-03T05:20:23.828Z,101581.13
2022-10-03T05:28:08.220Z,101581.09
2022-10-03T05:35:52.325Z,101594.50
2022-10-03T05:43:37.422Z,101593.63
2022-10-03T05:51:42.005Z,101602.59
2022-10-03T05:59:43.218Z,101600.84
2022-10-03T06:07:24.822Z,101607.97
2022-10-03T06:15:40.609Z,101620.59
2022-10-03T06:23:38.614Z,101641.16
2022-10-03T06:31:42.306Z,101652.72
2022-10-03T06:39:49.791Z,101663.50
2022-10-03T06:47:47.810Z,101654.63
2022-10-03T06:56:00.715Z,101670.00
2022-10-03T07:04:12.115Z,101667.50
2022-10-03T07:12:23.034Z,101674.91
2022-10-03T07:20:38.576Z,101681.47
2022-10-03T07:29:02.617Z,101688.84
2022-10-03T07:37:28.341Z,101705.03
2022-10-03T07:45:30.365Z,101710.59
2022-10-03T07:53:21.726Z,101720.78
2022-10-03T08:01:20.838Z,101729.09
2022-10-03T08:09:23.827Z,101731.78
2022-10-03T08:17:26.224Z,101746.13
2022-10-03T08:25:19.011Z,101744.47
2022-10-03T08:33:07.895Z,101745.44
2022-10-03T08:41:24.232Z,101753.69
2022-10-03T08:49:08.146Z,101763.72
2022-10-03T08:57:06.254Z,101765.88
2022-10-03T09:05:03.523Z,101751.34
2022-10-03T09:13:07.285Z,101757.94
2022-10-03T09:21:10.977Z,101751.78
2022-10-03T09:29:27.487Z,101764.50
2022-10-03T09:37:19.063Z,101769.94
2022-10-03T09:45:21.673Z,101764.94
2022-10-03T09:53:43.458Z,101772.22
2022-10-03T10:01:31.676Z,101784.22
2022-10-03T10:09:42.101Z,101777.94
2022-10-03T10:18:04.660Z,101778.00
2022-10-03T10:26:13.695Z,101780.63
2022-10-03T10:34:25.859Z,101773.03
2022-10-03T10:42:48.433Z,101762.53
2022-10-03T10:51:07.903Z,101756.22
2022-10-03T10:59:38.528Z,101757.56
2022-10-03T11:07:37.671Z,101759.44
2022-10-03T11:15:47.781Z,101771.13
2022-10-03T11:23:38.911Z,101775.44
2022-10-03T11:31:48.991Z,101779.59
2022-10-03T11:39:33.493Z,101782.97
2022-10-03T11:47:36.006Z,101783.91
2022-10-03T11:55:26.589Z,101780.38
2022-10-03T12:03:22.122Z,101773.41
2022-10-03T12:11:07.404Z,101759.25
2022-10-03T12:18:54.942Z,101747.91
2022-10-03T12:26:44.003Z,101736.31
2022-10-03T12:34:34.314Z,101738.31
2022-10-03T12:42:32.022Z,101744.66
2022-10-03T12:50:22.561Z,101740.53
2022-10-03T12:58:04.950Z,101738.94
2022-10-03T13:05:57.026Z,101736.38
2022-10-03T13:13:38.093Z,101743.38
2022-10-03T13:21:44.354Z,101736.25
2022-10-03T13:29:42.070Z,101740.88
2022-10-03T13:37:22.078Z,101746.13
2022-10-03T13:45:04.146Z,101746.19
2022-10-03T13:53:00.992Z,101749.53
2022-10-03T14:00:43.201Z,101743.16
2022-10-03T14:08:31.150Z,101753.03
2022-10-03T14:16:12.201Z,101747.94
2022-10-03T14:23:54.619Z,101741.53
2022-10-03T14:31:35.972Z,101745.97
2022-10-03T14:39:29.905Z,101738.78
2022-10-03T14:47:10.049Z,101741.47
2022-10-03T14:54:45.699Z,101736.09
2022-10-03T15:02:29.056Z,101723.44
2022-10-03T15:10:06.773Z,101726.97
2022-10-03T15:17:46.942Z,101717.06
2022-10-03T15:25:26.328Z,101727.78
2022-10-03T15:33:09.282Z,101727.75
2022-10-03T15:40:52.195Z,101733.09
2022-10-03T15:48:29.035Z,101730.34
2022-10-03T15:56:12.185Z,101727.50
2022-10-03T16:03:48.348Z,101724.72
2022-10-03T16:11:28.239Z,101733.66
2022-10-03T16:19:21.323Z,101732.69
2022-10-03T16:27:00.768Z,101745.22
2022-10-03T16:34:36.254Z,101725.41
2022-10-03T16:42:18.538Z,101729.84
2022-10-03T16:50:14.078Z,101738.72
2022-10-03T16:57:53.745Z,101751.94
2022-10-03T17:05:28.107Z,101740.50
2022-10-03T17:13:08.478Z,101755.16
2022-10-03T17:20:48.259Z,101757.75
2022-10-03T17:28:32.608Z,101749.06
2022-10-03T17:36:28.249Z,101737.34
2022-10-03T17:44:17.293Z,101736.50
2022-10-03T17:51:53.724Z,101741.88
2022-10-03T17:59:33.909Z,101744.53
2022-10-03T18:07:13.606Z,101754.38
2022-10-03T18:15:12.619Z,101753.50
2022-10-03T18:22:49.130Z,101748.16
2022-10-03T18:30:33.287Z,101747.25
2022-10-03T18:38:20.600Z,101740.97
2022-10-03T18:46:01.460Z,101741.88
2022-10-03T18:53:39.164Z,101736.44
2022-10-03T19:01:19.680Z,101745.38
2022-10-03T19:08:57.467Z,101738.06
2022-10-03T19:16:45.113Z,101736.19
2022-10-03T19:24:39.805Z,101746.91
2022-10-03T19:32:28.049Z,101742.38
2022-10-03T19:40:02.390Z,101743.06
2022-10-03T19:47:40.608Z,101734.94
2022-10-03T19:55:16.535Z,101746.50
2022-10-03T20:02:57.434Z,101746.47
2022-10-03T20:10:49.108Z,101747.38
2022-10-03T20:18:27.994Z,101743.81
2022-10-03T20:26:05.222Z,101742.00
2022-10-03T20:33:40.546Z,101737.50
2022-10-03T20:41:18.993Z,101735.69
2022-10-03T20:49:32.234Z,101747.34
2022-10-03T20:57:15.375Z,101749.03
2022-10-03T21:04:56.124Z,101757.06
2022-10-03T21:12:35.482Z,101749.84
2022-10-03T21:20:16.273Z,101748.91
2022-10-03T21:27:53.188Z,101742.59
2022-10-03T21:35:31.091Z,101747.03
2022-10-03T21:43:16.616Z,101738.97
2022-10-03T21:50:57.541Z,101736.34
2022-10-03T21:58:54.207Z,101740.75
2022-10-03T22:06:35.949Z,101739.84
2022-10-03T22:14:17.709Z,101738.91
2022-10-03T22:22:07.885Z,101728.22
2022-10-03T22:29:54.391Z,101727.31
2022-10-03T22:37:29.905Z,101717.44
2022-10-03T22:45:06.124Z,101721.88
2022-10-03T22:52:45.169Z,101718.38
2022-10-03T23:00:23.379Z,101721.06
2022-10-03T23:08:14.496Z,101710.34
2022-10-03T23:15:51.271Z,101713.03
2022-10-03T23:23:33.908Z,101713.91
2022-10-03T23:31:07.689Z,101723.69
2022-10-03T23:39:01.708Z,101723.75
2022-10-03T23:46:35.721Z,101728.22
2022-10-03T23:54:13.399Z,101727.31
